Terminal Aerodrome Forecast
Issued by NWS Lake Charles, LA

Home | Current Version | Previous Version | Text Only | Print | Product List | Glossary On
Versions: 1 2 3 4 5 6 7 8 9 10 11 12 13 14 15
000
FTUS44 KLCH 012300
TAFLCH
TAF
KLCH 012327Z 0200/0224 18004KT P6SM FEW030
     FM020600 16003KT 4SM BR BKN015
     FM021400 17006KT P6SM VCSH BKN025
     FM021700 19010G18KT P6SM VCTS SCT035CB BKN050=

USA.gov is the U.S. government's official web portal to all federal, state and local government web resources and services.